createdAt,value
2022-12-16T00:00:50.079Z,43.05
2022-12-16T00:03:19.129Z,43.92
2022-12-16T00:05:49.590Z,45.53
2022-12-16T00:08:21.613Z,46.07
2022-12-16T00:10:55.097Z,45.30
2022-12-16T00:13:26.143Z,43.92
2022-12-16T00:15:59.397Z,46.33
2022-12-16T00:18:37.314Z,45.65
2022-12-16T00:21:10.172Z,47.65
2022-12-16T00:23:45.196Z,44.47
2022-12-16T00:26:15.810Z,43.10
2022-12-16T00:28:47.248Z,44.63
2022-12-16T00:33:56.228Z,42.72
2022-12-16T00:36:26.722Z,45.85
2022-12-16T00:38:57.306Z,45.70
2022-12-16T00:41:29.848Z,45.05
2022-12-16T00:44:05.257Z,46.00
2022-12-16T00:46:38.191Z,47.97
2022-12-16T00:49:11.102Z,46.22
2022-12-16T00:51:44.038Z,46.25
2022-12-16T00:54:16.361Z,48.63
2022-12-16T00:56:49.300Z,48.50
2022-12-16T00:59:21.482Z,49.28
2022-12-16T01:01:52.882Z,48.47
2022-12-16T01:04:27.973Z,49.97
2022-12-16T01:07:02.119Z,47.97
2022-12-16T01:09:32.749Z,50.28
2022-12-16T01:12:08.320Z,48.05
2022-12-16T01:14:36.022Z,46.60
2022-12-16T01:17:03.839Z,51.72
2022-12-16T01:19:36.374Z,46.67
2022-12-16T01:22:04.655Z,48.67
2022-12-16T01:24:34.047Z,51.60
2022-12-16T01:27:03.967Z,51.25
2022-12-16T01:29:31.529Z,50.35
2022-12-16T01:32:09.562Z,46.93
2022-12-16T01:34:42.922Z,48.10
2022-12-16T01:37:16.537Z,48.67
2022-12-16T01:39:44.311Z,44.70
2022-12-16T01:42:16.775Z,46.70
2022-12-16T01:44:49.783Z,44.83
2022-12-16T01:47:38.234Z,47.97
2022-12-16T01:50:18.564Z,47.17
2022-12-16T01:52:57.194Z,47.17
2022-12-16T01:55:31.618Z,48.22
2022-12-16T01:58:26.621Z,50.92
2022-12-16T02:01:01.181Z,56.95
2022-12-16T02:03:34.182Z,51.42
2022-12-16T02:06:15.384Z,52.50
2022-12-16T02:08:54.215Z,51.25
2022-12-16T02:11:49.107Z,52.35
2022-12-16T02:14:46.070Z,50.72
2022-12-16T02:17:50.714Z,54.72
2022-12-16T02:20:57.995Z,49.97
2022-12-16T02:24:09.905Z,49.58
2022-12-16T02:27:21.653Z,46.17
2022-12-16T02:30:08.102Z,48.85
2022-12-16T02:32:57.563Z,47.58
2022-12-16T02:35:39.668Z,51.05
2022-12-16T02:38:27.683Z,49.70
2022-12-16T02:41:10.790Z,59.22
2022-12-16T02:44:11.457Z,51.00
2022-12-16T02:46:44.774Z,51.97
2022-12-16T02:49:18.339Z,49.47
2022-12-16T02:51:51.317Z,53.03
2022-12-16T02:54:33.526Z,54.05
2022-12-16T02:57:19.915Z,50.65
2022-12-16T03:00:10.523Z,52.08
2022-12-16T03:03:08.100Z,56.17
2022-12-16T03:05:49.031Z,48.05
2022-12-16T03:08:34.433Z,47.83
2022-12-16T03:11:11.303Z,56.53
2022-12-16T03:14:07.141Z,49.65
2022-12-16T03:19:26.836Z,47.88
2022-12-16T03:22:16.328Z,56.78
2022-12-16T03:24:44.009Z,49.42
2022-12-16T03:27:22.189Z,50.58
2022-12-16T03:30:48.203Z,48.60
2022-12-16T03:33:27.025Z,46.10
2022-12-16T03:36:09.903Z,49.35
2022-12-16T03:38:46.879Z,46.67
2022-12-16T03:41:22.528Z,47.15
2022-12-16T03:44:06.721Z,44.67
2022-12-16T03:46:36.941Z,41.58
2022-12-16T03:49:12.297Z,45.40
2022-12-16T03:51:50.999Z,45.80
2022-12-16T03:54:20.814Z,43.50
2022-12-16T03:56:53.472Z,41.88
2022-12-16T03:59:26.242Z,44.75
2022-12-16T04:02:02.832Z,41.20
2022-12-16T04:04:34.395Z,43.80
2022-12-16T04:07:21.816Z,42.13
2022-12-16T04:09:53.250Z,44.88
2022-12-16T04:15:26.183Z,44.92
2022-12-16T04:18:11.928Z,41.67
2022-12-16T04:21:01.865Z,42.38
2022-12-16T04:23:49.409Z,45.08
2022-12-16T04:26:16.771Z,43.22
2022-12-16T04:28:43.760Z,41.28
2022-12-16T04:31:11.156Z,43.42
2022-12-16T04:33:57.224Z,42.80
2022-12-16T04:36:42.752Z,45.20
2022-12-16T04:39:28.562Z,41.60
2022-12-16T04:42:14.273Z,44.03
2022-12-16T04:44:59.674Z,47.60
2022-12-16T04:47:45.325Z,44.35
2022-12-16T04:50:31.063Z,45.65
2022-12-16T04:53:16.457Z,48.45
2022-12-16T04:56:04.365Z,46.97
2022-12-16T04:58:50.517Z,47.42
2022-12-16T05:01:36.017Z,49.20
2022-12-16T05:04:22.077Z,49.17
2022-12-16T05:07:07.500Z,49.92
2022-12-16T05:09:53.039Z,47.15
2022-12-16T05:12:38.981Z,45.88
2022-12-16T05:15:25.028Z,42.80
2022-12-16T05:18:10.793Z,42.75
2022-12-16T05:20:56.530Z,47.92
2022-12-16T05:23:42.210Z,45.85
2022-12-16T05:26:44.465Z,46.25
2022-12-16T05:29:29.920Z,46.58
2022-12-16T05:32:15.401Z,46.88
2022-12-16T05:35:01.171Z,43.75
2022-12-16T05:37:46.965Z,48.20
2022-12-16T05:40:32.683Z,45.83
2022-12-16T05:43:18.151Z,50.15
2022-12-16T05:46:03.769Z,47.55
2022-12-16T05:48:49.269Z,44.55
2022-12-16T05:51:34.962Z,48.13
2022-12-16T05:54:20.576Z,47.58
2022-12-16T05:57:06.272Z,46.38
2022-12-16T05:59:52.075Z,47.30
2022-12-16T06:02:38.343Z,48.40
2022-12-16T06:05:24.273Z,45.35
2022-12-16T06:08:13.251Z,46.17
2022-12-16T06:10:59.265Z,43.45
2022-12-16T06:13:44.930Z,48.63
2022-12-16T06:16:30.639Z,43.78
2022-12-16T06:19:16.197Z,43.08
2022-12-16T06:22:01.794Z,45.10
2022-12-16T06:24:47.305Z,41.72
2022-12-16T06:27:32.698Z,40.17
2022-12-16T06:30:18.326Z,44.60
2022-12-16T06:33:04.031Z,43.55
2022-12-16T06:35:49.700Z,44.92
2022-12-16T06:38:35.420Z,44.05
2022-12-16T06:41:21.180Z,42.22
2022-12-16T06:44:06.871Z,42.70
2022-12-16T06:46:52.695Z,39.25
2022-12-16T06:49:38.136Z,39.00
2022-12-16T06:52:23.703Z,45.45
2022-12-16T06:55:09.150Z,43.78
2022-12-16T06:57:54.829Z,49.50
2022-12-16T07:00:40.394Z,46.08
2022-12-16T07:03:25.974Z,45.58
2022-12-16T07:06:12.626Z,44.72
2022-12-16T07:08:58.000Z,49.40
2022-12-16T07:11:43.813Z,47.75
2022-12-16T07:14:46.413Z,47.47
2022-12-16T07:17:32.142Z,46.55
2022-12-16T07:20:18.074Z,48.95
2022-12-16T07:23:10.946Z,46.10
2022-12-16T07:26:01.610Z,49.50
2022-12-16T07:28:47.076Z,57.45
2022-12-16T07:31:32.869Z,50.95
2022-12-16T07:34:18.486Z,46.97
2022-12-16T07:37:04.124Z,54.67
2022-12-16T07:39:54.514Z,55.08
2022-12-16T07:42:41.604Z,55.08
2022-12-16T07:45:29.050Z,52.92
2022-12-16T07:48:14.831Z,56.80
2022-12-16T07:51:00.666Z,50.30
2022-12-16T07:53:46.189Z,53.55
2022-12-16T07:56:32.038Z,60.38
2022-12-16T07:59:17.585Z,59.95
2022-12-16T08:02:03.449Z,53.45
2022-12-16T08:04:49.079Z,59.47
2022-12-16T08:07:34.714Z,55.38
2022-12-16T08:10:20.640Z,51.78
2022-12-16T08:13:06.464Z,54.38
2022-12-16T08:15:52.173Z,51.85
2022-12-16T08:18:38.541Z,53.22
2022-12-16T08:21:24.367Z,48.95
2022-12-16T08:24:10.282Z,53.05
2022-12-16T08:26:55.719Z,54.08
2022-12-16T08:29:45.368Z,55.25
2022-12-16T08:32:32.835Z,53.88
2022-12-16T08:35:18.567Z,54.45
2022-12-16T08:38:09.038Z,53.72
2022-12-16T08:41:03.778Z,52.97
2022-12-16T08:43:51.082Z,53.47
2022-12-16T08:46:37.346Z,53.97
2022-12-16T08:49:23.691Z,52.85
2022-12-16T08:52:09.834Z,54.42
2022-12-16T08:54:55.468Z,53.47
2022-12-16T08:57:42.456Z,55.38
2022-12-16T09:00:28.910Z,50.03
2022-12-16T09:03:15.481Z,49.53
2022-12-16T09:06:01.745Z,53.13
2022-12-16T09:08:48.040Z,50.95
2022-12-16T09:11:33.886Z,54.95
2022-12-16T09:14:19.571Z,50.67
2022-12-16T09:17:04.944Z,52.38
2022-12-16T09:19:50.668Z,49.53
2022-12-16T09:22:53.170Z,51.47
2022-12-16T09:25:40.755Z,51.83
2022-12-16T09:28:26.325Z,51.75
2022-12-16T09:31:11.898Z,51.03
2022-12-16T09:33:57.282Z,53.72
2022-12-16T09:36:42.759Z,53.25
2022-12-16T09:39:28.103Z,51.60
2022-12-16T09:42:32.343Z,51.42
2022-12-16T09:45:58.019Z,53.15
2022-12-16T09:49:12.747Z,52.83
2022-12-16T09:51:59.635Z,53.25
2022-12-16T09:54:48.499Z,53.60
2022-12-16T09:57:34.900Z,53.53
2022-12-16T10:00:35.505Z,56.10
2022-12-16T10:03:31.648Z,53.38
2022-12-16T10:06:50.990Z,54.33
2022-12-16T10:09:39.537Z,51.05
2022-12-16T10:12:44.528Z,56.45
2022-12-16T10:15:58.122Z,62.33
2022-12-16T10:19:06.294Z,60.08
2022-12-16T10:22:00.956Z,53.63
2022-12-16T10:25:05.234Z,56.42
2022-12-16T10:27:58.100Z,54.80
2022-12-16T10:30:43.846Z,58.58
2022-12-16T10:33:33.847Z,54.55
2022-12-16T10:36:19.727Z,51.80
2022-12-16T10:39:19.932Z,53.63
2022-12-16T10:42:10.172Z,56.63
2022-12-16T10:45:01.885Z,57.95
2022-12-16T10:50:34.258Z,59.40
2022-12-16T10:53:23.188Z,59.05
2022-12-16T10:56:27.371Z,52.85
2022-12-16T10:59:16.224Z,58.20
2022-12-16T11:02:19.099Z,56.53
2022-12-16T11:05:05.924Z,61.15
2022-12-16T11:07:57.458Z,56.17
2022-12-16T11:10:44.115Z,55.47
2022-12-16T11:13:44.845Z,58.88
2022-12-16T11:16:44.245Z,60.17
2022-12-16T11:19:49.891Z,57.35
2022-12-16T11:22:40.705Z,57.40
2022-12-16T11:25:35.663Z,58.27
2022-12-16T11:28:39.085Z,55.17
2022-12-16T11:31:30.791Z,58.28
2022-12-16T11:37:04.124Z,54.95
2022-12-16T11:39:51.069Z,57.85
2022-12-16T11:42:44.028Z,53.90
2022-12-16T11:45:40.481Z,57.00
2022-12-16T11:49:01.163Z,60.60
2022-12-16T11:51:50.395Z,53.55
2022-12-16T11:54:48.511Z,58.40
2022-12-16T11:58:02.671Z,51.83
2022-12-16T12:00:48.898Z,57.88
2022-12-16T12:03:41.808Z,53.60
2022-12-16T12:06:31.522Z,55.65
2022-12-16T12:09:19.939Z,57.63
2022-12-16T12:12:14.979Z,64.07
2022-12-16T12:15:20.394Z,55.47
2022-12-16T12:18:25.745Z,60.05
2022-12-16T12:21:26.380Z,66.28
2022-12-16T12:24:15.260Z,63.17
2022-12-16T12:27:09.788Z,58.83
2022-12-16T12:30:16.660Z,58.60
2022-12-16T12:33:40.210Z,45.92
2022-12-16T12:36:44.353Z,41.67
2022-12-16T12:40:05.869Z,41.00
2022-12-16T12:42:57.525Z,46.30
2022-12-16T12:49:12.321Z,41.50
2022-12-16T12:52:09.906Z,37.85
2022-12-16T12:55:00.939Z,41.53
2022-12-16T12:57:48.420Z,40.30
2022-12-16T13:00:36.883Z,39.35
2022-12-16T13:03:38.113Z,39.72
2022-12-16T13:09:11.335Z,35.28
2022-12-16T13:12:17.111Z,35.90
2022-12-16T13:15:08.333Z,34.78
2022-12-16T13:18:16.280Z,36.80
2022-12-16T13:21:01.892Z,33.88
2022-12-16T13:23:47.423Z,33.83
2022-12-16T13:26:38.254Z,35.20
2022-12-16T13:29:43.266Z,34.03
2022-12-16T13:32:28.924Z,34.17
2022-12-16T13:35:37.833Z,34.45
2022-12-16T13:38:38.653Z,31.30
2022-12-16T13:41:45.741Z,33.00
2022-12-16T13:44:52.057Z,31.13
2022-12-16T13:48:12.770Z,30.02
2022-12-16T13:51:07.801Z,30.63
2022-12-16T13:53:57.804Z,31.70
2022-12-16T13:56:58.036Z,31.52
2022-12-16T13:59:48.452Z,31.58
2022-12-16T14:02:57.448Z,28.67
2022-12-16T14:05:55.982Z,30.75
2022-12-16T14:08:43.152Z,34.35
2022-12-16T14:12:04.153Z,31.15
2022-12-16T14:14:55.278Z,31.45
2022-12-16T14:17:52.591Z,46.28
2022-12-16T14:21:05.818Z,34.50
2022-12-16T14:24:01.700Z,29.85
2022-12-16T14:26:47.621Z,29.80
2022-12-16T14:29:51.630Z,33.03
2022-12-16T14:32:48.236Z,26.77
2022-12-16T14:36:07.084Z,31.45
2022-12-16T14:38:55.684Z,32.67
2022-12-16T14:41:44.093Z,30.20
2022-12-16T14:44:39.225Z,33.17
2022-12-16T14:47:25.053Z,31.25
2022-12-16T14:50:12.428Z,32.42
2022-12-16T14:52:58.610Z,30.27
2022-12-16T14:55:53.972Z,29.17
2022-12-16T14:58:41.990Z,31.13
2022-12-16T15:01:35.937Z,32.40
2022-12-16T15:04:25.280Z,32.83
2022-12-16T15:07:12.974Z,32.75
2022-12-16T15:10:17.780Z,30.17
2022-12-16T15:13:06.769Z,28.42
2022-12-16T15:16:01.615Z,27.15
2022-12-16T15:18:52.019Z,33.13
2022-12-16T15:21:37.570Z,42.90
2022-12-16T15:24:38.186Z,44.35
2022-12-16T15:27:45.853Z,44.67
2022-12-16T15:30:50.384Z,71.38
2022-12-16T15:33:38.507Z,43.55
2022-12-16T15:36:25.286Z,34.03
2022-12-16T15:39:10.785Z,34.28
2022-12-16T15:41:56.815Z,51.42
2022-12-16T15:44:46.021Z,65.53
2022-12-16T15:47:55.731Z,89.30
2022-12-16T15:50:47.047Z,48.13
2022-12-16T15:53:45.808Z,63.85
2022-12-16T15:56:52.004Z,79.00
2022-12-16T15:59:45.172Z,79.82
2022-12-16T16:02:38.459Z,74.07
2022-12-16T16:05:38.234Z,57.30
2022-12-16T16:08:24.083Z,48.05
2022-12-16T16:11:10.137Z,57.58
2022-12-16T16:14:05.964Z,34.80
2022-12-16T16:17:00.640Z,38.53
2022-12-16T16:19:50.971Z,36.83
2022-12-16T16:22:39.362Z,33.63
2022-12-16T16:25:33.283Z,34.22
2022-12-16T16:28:33.181Z,39.72
2022-12-16T16:31:19.691Z,33.38
2022-12-16T16:34:11.108Z,34.30
2022-12-16T16:37:04.208Z,33.28
2022-12-16T16:40:01.678Z,34.40
2022-12-16T16:49:03.174Z,31.98
2022-12-16T16:52:11.307Z,29.42
2022-12-16T16:55:04.971Z,30.90
2022-12-16T16:57:57.492Z,28.23
2022-12-16T17:00:58.637Z,28.58
2022-12-16T17:03:59.645Z,30.70
2022-12-16T17:06:54.328Z,29.90
2022-12-16T17:09:52.984Z,34.28
2022-12-16T17:12:46.337Z,32.47
2022-12-16T17:16:08.302Z,39.67
2022-12-16T17:22:19.596Z,40.20
2022-12-16T17:25:07.904Z,40.90
2022-12-16T17:28:12.852Z,42.63
2022-12-16T17:31:22.685Z,40.70
2022-12-16T17:34:10.844Z,54.83
2022-12-16T17:37:03.032Z,41.72
2022-12-16T17:39:54.633Z,36.60
2022-12-16T17:42:46.487Z,38.38
2022-12-16T17:45:37.730Z,38.65
2022-12-16T17:48:43.944Z,37.17
2022-12-16T17:51:47.115Z,34.05
2022-12-16T17:54:44.982Z,34.92
2022-12-16T17:57:31.518Z,34.88
2022-12-16T18:00:20.222Z,34.20
2022-12-16T18:03:07.638Z,36.25
2022-12-16T18:06:03.180Z,38.22
2022-12-16T18:08:59.256Z,37.72
2022-12-16T18:11:57.994Z,36.40
2022-12-16T18:14:47.061Z,37.42
2022-12-16T18:17:36.125Z,36.05
2022-12-16T18:20:25.210Z,33.63
2022-12-16T18:23:21.313Z,33.60
2022-12-16T18:26:24.608Z,36.60
2022-12-16T18:29:23.405Z,30.88
2022-12-16T18:32:21.030Z,35.10
2022-12-16T18:35:20.169Z,34.80
2022-12-16T18:38:16.934Z,34.67
2022-12-16T18:41:09.051Z,34.97
2022-12-16T18:44:00.776Z,34.83
2022-12-16T18:46:56.588Z,32.15
2022-12-16T18:49:52.806Z,33.38
2022-12-16T18:52:52.711Z,32.30
2022-12-16T18:55:45.431Z,34.67
2022-12-16T19:01:44.294Z,34.38
2022-12-16T19:04:47.880Z,34.65
2022-12-16T19:07:40.298Z,31.75
2022-12-16T19:10:52.327Z,31.95
2022-12-16T19:13:40.375Z,32.53
2022-12-16T19:16:38.526Z,32.25
2022-12-16T19:19:31.114Z,30.65
2022-12-16T19:22:24.170Z,36.42
2022-12-16T19:25:15.816Z,33.65
2022-12-16T19:28:11.729Z,38.75
2022-12-16T19:30:57.459Z,38.72
2022-12-16T19:33:43.377Z,34.08
2022-12-16T19:36:29.759Z,33.58
2022-12-16T19:39:15.542Z,30.02
2022-12-16T19:42:01.121Z,35.30
2022-12-16T19:44:46.740Z,32.47
2022-12-16T19:47:32.493Z,31.00
2022-12-16T19:50:18.248Z,31.58
2022-12-16T19:53:04.882Z,32.28
2022-12-16T19:55:53.067Z,33.50
2022-12-16T19:58:40.872Z,32.60
2022-12-16T20:01:29.080Z,37.50
2022-12-16T20:04:15.454Z,30.52
2022-12-16T20:07:00.969Z,33.45
2022-12-16T20:09:47.139Z,31.63
2022-12-16T20:12:32.931Z,35.28
2022-12-16T20:15:19.796Z,33.50
2022-12-16T20:18:05.563Z,32.67
2022-12-16T20:20:51.833Z,36.47
2022-12-16T20:23:39.549Z,34.60
2022-12-16T20:26:26.810Z,34.13
2022-12-16T20:29:12.817Z,34.90
2022-12-16T20:31:59.348Z,36.63
2022-12-16T20:34:45.088Z,35.95
2022-12-16T20:37:30.805Z,35.47
2022-12-16T20:40:16.739Z,36.45
2022-12-16T20:43:02.496Z,35.05
2022-12-16T20:45:48.015Z,35.80
2022-12-16T20:48:35.283Z,36.20
2022-12-16T20:51:26.858Z,35.60
2022-12-16T20:54:13.002Z,32.28
2022-12-16T20:56:59.801Z,38.78
2022-12-16T20:59:45.900Z,33.88
2022-12-16T21:02:33.772Z,35.35
2022-12-16T21:05:20.774Z,35.92
2022-12-16T21:08:08.496Z,32.85
2022-12-16T21:10:56.017Z,30.95
2022-12-16T21:13:41.908Z,35.55
2022-12-16T21:16:27.942Z,33.85
2022-12-16T21:19:13.972Z,31.25
2022-12-16T21:21:59.601Z,31.17
2022-12-16T21:24:45.504Z,33.00
2022-12-16T21:27:30.980Z,33.05
2022-12-16T21:30:16.719Z,33.60
2022-12-16T21:33:02.400Z,35.72
2022-12-16T21:35:48.322Z,33.60
2022-12-16T21:38:34.324Z,36.55
2022-12-16T21:41:19.800Z,37.80
2022-12-16T21:44:05.638Z,31.80
2022-12-16T21:46:51.872Z,36.55
2022-12-16T21:49:37.600Z,35.45
2022-12-16T21:52:23.414Z,33.78
2022-12-16T21:55:08.875Z,34.08
2022-12-16T21:58:14.915Z,35.22
2022-12-16T22:01:00.880Z,31.23
2022-12-16T22:03:53.743Z,33.90
2022-12-16T22:06:41.291Z,32.47
2022-12-16T22:09:29.892Z,34.05
2022-12-16T22:12:15.324Z,34.40
2022-12-16T22:15:00.937Z,37.97
2022-12-16T22:17:46.682Z,35.53
2022-12-16T22:20:32.470Z,36.35
2022-12-16T22:23:20.975Z,39.30
2022-12-16T22:26:18.829Z,32.67
2022-12-16T22:29:15.329Z,30.52
2022-12-16T22:32:01.130Z,32.53
2022-12-16T22:34:46.943Z,35.83
2022-12-16T22:37:32.570Z,33.42
2022-12-16T22:40:18.317Z,33.05
2022-12-16T22:43:07.199Z,33.30
2022-12-16T22:45:52.644Z,29.95
2022-12-16T22:48:38.404Z,34.72
2022-12-16T22:51:29.798Z,32.00
2022-12-16T22:54:15.510Z,31.65
2022-12-16T22:57:05.730Z,35.25
2022-12-16T22:59:51.385Z,31.95
2022-12-16T23:02:37.251Z,29.40
2022-12-16T23:05:27.576Z,29.20
2022-12-16T23:08:14.238Z,31.20
2022-12-16T23:11:00.651Z,32.65
2022-12-16T23:13:47.016Z,28.83
2022-12-16T23:16:32.958Z,32.13
2022-12-16T23:19:18.833Z,30.52
2022-12-16T23:22:06.320Z,30.83
2022-12-16T23:24:51.877Z,35.65
2022-12-16T23:27:37.549Z,33.80
2022-12-16T23:30:23.553Z,34.30
2022-12-16T23:33:15.700Z,32.45
2022-12-16T23:36:01.303Z,35.83
2022-12-16T23:38:46.894Z,39.90
2022-12-16T23:41:32.451Z,39.03
2022-12-16T23:44:18.135Z,40.08
2022-12-16T23:47:03.436Z,41.08
2022-12-16T23:49:49.145Z,38.63
2022-12-16T23:52:34.513Z,42.97
2022-12-16T23:55:20.287Z,37.22
2022-12-16T23:58:06.100Z,44.88
